Terminal Aerodrome Forecast
Issued by NWS Blacksburg, VA

Current Version | Previous Version | Graphics & Text | Print | Product List | Glossary On
Versions: 1 2 3 4 5 6 7 8 9 10 11 12 13 14 15
000
FTUS41 KRNK 130529
TAFBLF
TAF
KBLF 130529Z 1306/1406 30015G25KT P6SM -SHSN BKN030
      TEMPO 1306/1308 4SM -SHSN OVC025
     FM131200 29013G22KT P6SM SCT035
     FM132300 22010KT P6SM SCT045
     FM140200 23012KT P6SM BKN070 BKN250 WS020/25040KT=

USA.gov is the U.S. government's official web portal to all federal, state and local government web resources and services.